KLKV/LKV METAR and TAF weather

Enter ICAO airport designator
Station Type Date Time Source
KLKV METAR 2022/07/01 01:53 UTC NOAA

KLKV 010153Z AUTO 19004KT 10SM CLR 27/M04 A3005 RMK AO2 SLP139 T02721039


Station Type Date Time Source
KLKV Decoded METAR 2022/07/01 01:53 UTC NOAA

Lakeview, Lake County Airport, OR, United States (KLKV) 42-10N 120-24W
Jun 30, 2022 - 09:53 PM EDT / 2022.07.01 0153 UTC
Wind: from the S (190 degrees) at 5 MPH (4 KT):0
Visibility: 10 mile(s):0
Sky conditions: clear
Temperature: 81.0 F (27.2 C)
Dew Point: 25.0 F (-3.9 C)
Relative Humidity: 12%
Pressure (altimeter): 30.05 in. Hg (1017 hPa)
ob: KLKV 010153Z AUTO 19004KT 10SM CLR 27/M04 A3005 RMK AO2 SLP139 T02721039
cycle: 2

Station Type Date Time Source
KLKV TAF UTC NOAA

Error!

Example: see airport list